sensor_id;sensor_type;location;lat;lon;timestamp;P1;durP1;ratioP1;P2;durP2;ratioP2
14774;SDS011;7479;47.042;15.160;2023-03-12T07:31:38;7.80;;;4.60;;
14774;SDS011;7479;47.042;15.160;2023-03-12T07:47:36;6.13;;;4.20;;
14774;SDS011;7479;47.042;15.160;2023-03-12T07:52:29;4.60;;;3.60;;
14774;SDS011;7479;47.042;15.160;2023-03-12T07:57:23;6.57;;;3.63;;
14774;SDS011;7479;47.042;15.160;2023-03-12T08:02:16;3.80;;;3.40;;
14774;SDS011;7479;47.042;15.160;2023-03-12T08:07:14;5.63;;;4.20;;
14774;SDS011;7479;47.042;15.160;2023-03-12T08:12:07;8.17;;;4.77;;
14774;SDS011;7479;47.042;15.160;2023-03-12T08:22:00;4.67;;;3.40;;
14774;SDS011;7479;47.042;15.160;2023-03-12T08:26:55;3.67;;;2.90;;
14774;SDS011;7479;47.042;15.160;2023-03-12T08:31:49;4.47;;;3.30;;
14774;SDS011;7479;47.042;15.160;2023-03-12T08:36:55;3.83;;;3.20;;
14774;SDS011;7479;47.042;15.160;2023-03-12T08:41:49;4.10;;;3.30;;
14774;SDS011;7479;47.042;15.160;2023-03-12T08:46:47;4.77;;;3.23;;
14774;SDS011;7479;47.042;15.160;2023-03-12T08:51:41;9.80;;;3.67;;
14774;SDS011;7479;47.042;15.160;2023-03-12T08:56:34;3.40;;;3.00;;
14774;SDS011;7479;47.042;15.160;2023-03-12T09:01:32;4.40;;;3.10;;
14774;SDS011;7479;47.042;15.160;2023-03-12T09:06:27;5.70;;;3.30;;
14774;SDS011;7479;47.042;15.160;2023-03-12T09:11:21;4.50;;;3.00;;
14774;SDS011;7479;47.042;15.160;2023-03-12T09:16:15;5.53;;;3.00;;
14774;SDS011;7479;47.042;15.160;2023-03-12T09:21:08;4.30;;;3.00;;
14774;SDS011;7479;47.042;15.160;2023-03-12T09:26:07;3.43;;;3.13;;
14774;SDS011;7479;47.042;15.160;2023-03-12T09:31:02;5.03;;;3.10;;
14774;SDS011;7479;47.042;15.160;2023-03-12T09:35:57;3.73;;;3.10;;
14774;SDS011;7479;47.042;15.160;2023-03-12T09:40:51;3.40;;;3.10;;
14774;SDS011;7479;47.042;15.160;2023-03-12T09:45:48;3.27;;;2.90;;
14774;SDS011;7479;47.042;15.160;2023-03-12T09:50:44;3.70;;;3.27;;
14774;SDS011;7479;47.042;15.160;2023-03-12T09:55:44;4.83;;;3.00;;
14774;SDS011;7479;47.042;15.160;2023-03-12T10:00:42;7.10;;;3.80;;
14774;SDS011;7479;47.042;15.160;2023-03-12T10:05:40;4.33;;;3.57;;
14774;SDS011;7479;47.042;15.160;2023-03-12T10:10:44;3.63;;;3.00;;
14774;SDS011;7479;47.042;15.160;2023-03-12T10:15:47;3.93;;;2.90;;
14774;SDS011;7479;47.042;15.160;2023-03-12T10:26:12;3.87;;;3.20;;
14774;SDS011;7479;47.042;15.160;2023-03-12T10:31:12;4.53;;;3.00;;
14774;SDS011;7479;47.042;15.160;2023-03-12T10:36:14;5.07;;;3.23;;
14774;SDS011;7479;47.042;15.160;2023-03-12T10:41:13;4.60;;;3.30;;
14774;SDS011;7479;47.042;15.160;2023-03-12T10:46:14;3.97;;;2.90;;
14774;SDS011;7479;47.042;15.160;2023-03-12T10:51:41;4.60;;;3.30;;
14774;SDS011;7479;47.042;15.160;2023-03-12T10:56:47;3.50;;;2.80;;
14774;SDS011;7479;47.042;15.160;2023-03-12T11:01:42;3.87;;;3.10;;
14774;SDS011;7479;47.042;15.160;2023-03-12T11:06:43;4.03;;;3.10;;
14774;SDS011;7479;47.042;15.160;2023-03-12T11:12:13;3.27;;;2.97;;
14774;SDS011;7479;47.042;15.160;2023-03-12T11:17:20;4.40;;;3.20;;
14774;SDS011;7479;47.042;15.160;2023-03-12T11:22:21;3.50;;;2.90;;
14774;SDS011;7479;47.042;15.160;2023-03-12T11:27:22;3.63;;;3.00;;
14774;SDS011;7479;47.042;15.160;2023-03-12T11:32:30;3.70;;;2.90;;
14774;SDS011;7479;47.042;15.160;2023-03-12T11:37:32;2.73;;;2.50;;
14774;SDS011;7479;47.042;15.160;2023-03-12T11:42:39;2.43;;;2.23;;
14774;SDS011;7479;47.042;15.160;2023-03-12T11:47:47;3.07;;;2.30;;
14774;SDS011;7479;47.042;15.160;2023-03-12T11:58:25;4.27;;;2.50;;
14774;SDS011;7479;47.042;15.160;2023-03-12T12:03:45;2.50;;;2.10;;
14774;SDS011;7479;47.042;15.160;2023-03-12T12:09:08;3.90;;;2.57;;
14774;SDS011;7479;47.042;15.160;2023-03-12T12:14:22;3.00;;;2.60;;
14774;SDS011;7479;47.042;15.160;2023-03-12T12:19:31;3.10;;;2.60;;
14774;SDS011;7479;47.042;15.160;2023-03-12T12:24:37;3.30;;;3.00;;
14774;SDS011;7479;47.042;15.160;2023-03-12T12:29:47;2.70;;;2.50;;
14774;SDS011;7479;47.042;15.160;2023-03-12T12:35:07;2.67;;;2.47;;
14774;SDS011;7479;47.042;15.160;2023-03-12T12:40:19;3.90;;;2.73;;
14774;SDS011;7479;47.042;15.160;2023-03-12T12:45:16;4.03;;;2.80;;
14774;SDS011;7479;47.042;15.160;2023-03-12T12:50:12;4.27;;;2.80;;
14774;SDS011;7479;47.042;15.160;2023-03-12T12:55:10;3.00;;;2.70;;
14774;SDS011;7479;47.042;15.160;2023-03-12T13:00:12;3.90;;;2.80;;
14774;SDS011;7479;47.042;15.160;2023-03-12T13:05:20;11.63;;;7.40;;
14774;SDS011;7479;47.042;15.160;2023-03-12T13:10:39;3.10;;;2.67;;
14774;SDS011;7479;47.042;15.160;2023-03-12T13:15:50;2.97;;;2.67;;
14774;SDS011;7479;47.042;15.160;2023-03-12T13:20:44;3.90;;;2.60;;
14774;SDS011;7479;47.042;15.160;2023-03-12T13:25:54;4.27;;;2.93;;
14774;SDS011;7479;47.042;15.160;2023-03-12T13:30:56;4.93;;;2.70;;
14774;SDS011;7479;47.042;15.160;2023-03-12T13:41:14;3.10;;;2.70;;
14774;SDS011;7479;47.042;15.160;2023-03-12T13:46:31;2.63;;;2.30;;
14774;SDS011;7479;47.042;15.160;2023-03-12T13:51:33;4.20;;;2.63;;
14774;SDS011;7479;47.042;15.160;2023-03-12T13:56:45;7.17;;;4.00;;
14774;SDS011;7479;47.042;15.160;2023-03-12T14:01:49;3.73;;;2.93;;
14774;SDS011;7479;47.042;15.160;2023-03-12T14:06:51;2.70;;;2.30;;
14774;SDS011;7479;47.042;15.160;2023-03-12T14:11:56;2.77;;;2.30;;
14774;SDS011;7479;47.042;15.160;2023-03-12T14:16:57;5.13;;;2.33;;
14774;SDS011;7479;47.042;15.160;2023-03-12T14:21:54;3.47;;;2.73;;
14774;SDS011;7479;47.042;15.160;2023-03-12T14:26:52;3.60;;;2.80;;
14774;SDS011;7479;47.042;15.160;2023-03-12T14:31:46;2.90;;;2.60;;
14774;SDS011;7479;47.042;15.160;2023-03-12T14:36:43;3.37;;;2.80;;
14774;SDS011;7479;47.042;15.160;2023-03-12T14:41:41;3.63;;;2.90;;
14774;SDS011;7479;47.042;15.160;2023-03-12T14:46:44;2.95;;;2.58;;
14774;SDS011;7479;47.042;15.160;2023-03-12T14:51:38;4.70;;;2.70;;
14774;SDS011;7479;47.042;15.160;2023-03-12T14:56:33;3.50;;;2.90;;
14774;SDS011;7479;47.042;15.160;2023-03-12T15:01:28;4.05;;;2.67;;
14774;SDS011;7479;47.042;15.160;2023-03-12T15:06:26;4.25;;;2.75;;
14774;SDS011;7479;47.042;15.160;2023-03-12T15:11:22;3.40;;;2.67;;
14774;SDS011;7479;47.042;15.160;2023-03-12T15:16:20;4.65;;;3.00;;
14774;SDS011;7479;47.042;15.160;2023-03-12T15:21:14;3.08;;;2.42;;
14774;SDS011;7479;47.042;15.160;2023-03-12T15:26:13;4.65;;;3.30;;
14774;SDS011;7479;47.042;15.160;2023-03-12T15:31:30;3.92;;;2.60;;
14774;SDS011;7479;47.042;15.160;2023-03-12T15:36:34;3.63;;;2.70;;
14774;SDS011;7479;47.042;15.160;2023-03-12T15:41:31;3.80;;;3.20;;
14774;SDS011;7479;47.042;15.160;2023-03-12T15:46:35;4.63;;;2.63;;
14774;SDS011;7479;47.042;15.160;2023-03-12T15:51:31;3.43;;;2.87;;
14774;SDS011;7479;47.042;15.160;2023-03-12T15:56:26;3.37;;;3.07;;
14774;SDS011;7479;47.042;15.160;2023-03-12T16:01:23;4.87;;;3.00;;
14774;SDS011;7479;47.042;15.160;2023-03-12T16:06:21;2.90;;;2.70;;
14774;SDS011;7479;47.042;15.160;2023-03-12T16:11:21;3.30;;;2.83;;
14774;SDS011;7479;47.042;15.160;2023-03-12T16:16:19;9.10;;;8.20;;
14774;SDS011;7479;47.042;15.160;2023-03-12T16:21:13;9.77;;;5.63;;
14774;SDS011;7479;47.042;15.160;2023-03-12T16:26:10;6.07;;;4.90;;
14774;SDS011;7479;47.042;15.160;2023-03-12T16:31:08;6.13;;;4.10;;
14774;SDS011;7479;47.042;15.160;2023-03-12T16:36:05;7.17;;;4.33;;
14774;SDS011;7479;47.042;15.160;2023-03-12T16:41:03;4.97;;;3.40;;
14774;SDS011;7479;47.042;15.160;2023-03-12T16:45:58;5.70;;;4.50;;
14774;SDS011;7479;47.042;15.160;2023-03-12T16:50:52;7.33;;;4.60;;
14774;SDS011;7479;47.042;15.160;2023-03-12T16:55:48;10.50;;;5.33;;
14774;SDS011;7479;47.042;15.160;2023-03-12T17:00:43;8.17;;;5.30;;
14774;SDS011;7479;47.042;15.160;2023-03-12T17:05:39;13.47;;;6.37;;
14774;SDS011;7479;47.042;15.160;2023-03-12T17:10:33;11.90;;;6.03;;
14774;SDS011;7479;47.042;15.160;2023-03-12T17:15:27;11.83;;;6.90;;
14774;SDS011;7479;47.042;15.160;2023-03-12T17:20:23;23.20;;;10.73;;
14774;SDS011;7479;47.042;15.160;2023-03-12T17:25:20;10.10;;;6.00;;
14774;SDS011;7479;47.042;15.160;2023-03-12T17:30:16;17.43;;;10.57;;
14774;SDS011;7479;47.042;15.160;2023-03-12T17:35:12;17.57;;;9.80;;
14774;SDS011;7479;47.042;15.160;2023-03-12T17:40:06;10.97;;;7.20;;
14774;SDS011;7479;47.042;15.160;2023-03-12T17:45:03;11.80;;;6.10;;
